Ana Sayfa
METAR-TAF:

METAR-TAF

Havaalanları :

Singapur, Singapur

Enlem: 01-22N, Boylam: 103-55E, yükseklik: 18 m

Güncel hava durumu gözlemi

Rapor saat 03:00 UTC de 30 dakika önce yapıldı.
Rüzgar kuzeydoğudan 13 kt
Sıcaklık 30°C
Nem 70%
Basınç 1011 hPa
Görüş mesafesi 10 km veya daha fazla
1800 ft yükseklikte az bulutlu
30000 ft yükseklikte parçalı çok bulutlu

METAR: WSAP 280300Z 05013KT 9999 FEW018 BKN300 30/24 Q1011

Saat: 11:30 (03:30 UTC)

Tahmin

Rapor saat 23:00 UTC de 4 saat ve 30 dakika önce yapıldı.
Ayın 28'si saat 00 UTC'den ayın 29'si saat 06 UTC'ye kadar geçerli Tahmin
Rüzgar kuzey/kuzeydoğudan 10 kt
Görüş mesafesi 10 km veya daha fazla
1500 ft yükseklikte az bulutlu
2000 ft yükseklikte parçalı bulutlu

TAF: WSAP 272300Z 2800/2906 03010KT 9999 FEW015 SCT020

4.000'den fazla havaalanı için hava durumu gözlemleri ve tahminleri (METAR ve TAF raporları).

Kullanılabilir istasyonlar harita üzerinde sarı ve kırmızı noktalarla gösterilir.

İstasyonun adını görmek için fareyi noktanın üzerinde gezdirin.

Sonrasında hava gözlem ve tahminlerini görmek için tıklayın.

Haritayı değiştirmek için: yaklaştırmak için siyah artı işaretli yeşil düğmeye ve uzaklaştırmak için de eksi işaretli düğmeye hızla tıklayın; bitişik haritalar için yeşil okları kullanın.


METAR-TAF: